Time;durP1;ratioP1;P1;durP2;ratioP2;P2;SDS_P1;SDS_P2;PMS_P1;PMS_P2;Temp;Humidity;BMP_temperature;BMP_pressure;BME280_temperature;BME280_humidity;BME280_pressure;Samples;Min_cycle;Max_cycle;Signal;HPM_P1;HPM_P2
2021/12/20 00:01:23;;;;;;;0.00;0.00;;;6.50;99.90;;;;;;5078168;28;20074;-85
2021/12/20 00:03:49;;;;;;;0.08;0.08;;;6.50;99.90;;;;;;5077388;28;20047;-85
2021/12/20 00:06:15;;;;;;;0.00;0.00;;;6.80;99.90;;;;;;5060390;28;20427;-85
2021/12/20 00:08:41;;;;;;;0.00;0.00;;;6.70;99.90;;;;;;5060346;28;20055;-85
2021/12/20 00:11:06;;;;;;;0.00;0.00;;;6.50;99.90;;;;;;5059873;28;20090;-85
2021/12/20 00:13:32;;;;;;;0.30;0.30;;;6.40;99.90;;;;;;5076869;28;20076;-85
2021/12/20 00:15:58;;;;;;;0.05;0.00;;;6.40;99.90;;;;;;5077039;28;20127;-85
2021/12/20 00:18:24;;;;;;;0.00;0.00;;;6.30;99.90;;;;;;5061564;28;20040;-85
2021/12/20 00:20:50;;;;;;;0.15;0.15;;;6.50;99.90;;;;;;5077115;28;20556;-85
2021/12/20 00:23:16;;;;;;;0.00;0.00;;;6.40;99.90;;;;;;5077205;28;20051;-85
2021/12/20 00:25:46;;;;;;;0.10;0.10;;;6.50;99.90;;;;;;5060243;28;20400;-85
2021/12/20 00:28:11;;;;;;;0.00;0.00;;;6.40;99.90;;;;;;5060537;28;20051;-85
2021/12/20 00:30:37;;;;;;;3.10;0.95;;;6.60;99.90;;;;;;5077232;28;20044;-85
2021/12/20 00:33:03;;;;;;;0.00;0.00;;;6.60;99.90;;;;;;5059087;28;20118;-85
2021/12/20 00:35:28;;;;;;;0.00;0.00;;;6.40;99.90;;;;;;5076083;28;20045;-85
2021/12/20 00:40:38;;;;;;;0.13;0.13;;;6.30;99.90;;;;;;5076675;28;20048;-85
2021/12/20 00:43:05;;;;;;;0.00;0.00;;;6.30;99.90;;;;;;5058839;28;20051;-85
2021/12/20 00:45:35;;;;;;;0.00;0.00;;;6.20;99.90;;;;;;5059940;28;20044;-85
2021/12/20 00:48:03;;;;;;;0.00;0.00;;;7.70;99.90;;;;;;5060110;28;20047;-85
2021/12/20 00:50:28;;;;;;;0.00;0.00;;;6.20;99.90;;;;;;5059998;28;20055;-85
2021/12/20 00:52:55;;;;;;;0.00;0.00;;;5.90;99.90;;;;;;5059700;28;20040;-85
2021/12/20 00:55:24;;;;;;;0.00;0.00;;;6.30;99.90;;;;;;5074936;28;20036;-85
2021/12/20 00:57:51;;;;;;;0.10;0.10;;;6.20;99.90;;;;;;5075443;28;20123;-85
2021/12/20 01:00:23;;;;;;;0.00;0.00;;;6.30;99.90;;;;;;5059062;28;20045;-85
2021/12/20 01:02:50;;;;;;;0.00;0.00;;;6.20;99.90;;;;;;5058673;28;20040;-85
2021/12/20 01:05:16;;;;;;;0.00;0.00;;;6.40;99.90;;;;;;5074706;28;20448;-85
2021/12/20 01:07:42;;;;;;;0.00;0.00;;;6.20;99.90;;;;;;5058362;28;20484;-85
2021/12/20 01:10:09;;;;;;;0.00;0.00;;;6.20;99.90;;;;;;5059193;28;20045;-85
2021/12/20 01:12:47;;;;;;;0.00;0.00;;;6.20;99.90;;;;;;5059925;28;20048;-85
2021/12/20 01:15:28;;;;;;;0.00;0.00;;;6.20;99.90;;;;;;5059970;28;20395;-85
2021/12/20 01:17:53;;;;;;;10.02;0.45;;;6.20;99.90;;;;;;5075752;28;20045;-85
2021/12/20 01:20:20;;;;;;;0.00;0.00;;;5.90;99.90;;;;;;5058385;28;20373;-85
2021/12/20 01:22:48;;;;;;;0.32;0.10;;;6.20;99.90;;;;;;5058065;28;20044;-85
2021/12/20 01:25:15;;;;;;;0.00;0.00;;;7.20;99.90;;;;;;5058716;28;20048;-84
2021/12/20 01:27:42;;;;;;;0.47;0.45;;;6.10;99.90;;;;;;5058518;28;20048;-85
2021/12/20 01:30:10;;;;;;;0.00;0.00;;;6.10;99.90;;;;;;5075591;28;20472;-85
2021/12/20 01:32:36;;;;;;;0.00;0.00;;;6.00;99.90;;;;;;5074555;28;20060;-85
2021/12/20 01:35:03;;;;;;;0.00;0.00;;;6.00;99.90;;;;;;5074535;28;20056;-85
2021/12/20 01:37:28;;;;;;;0.00;0.00;;;5.90;99.90;;;;;;5075253;28;20076;-84
2021/12/20 01:39:58;;;;;;;0.00;0.00;;;5.90;99.90;;;;;;5075899;28;20051;-85
2021/12/20 01:42:24;;;;;;;1.55;0.75;;;6.00;99.90;;;;;;5058960;28;20139;-85
2021/12/20 01:44:55;;;;;;;0.00;0.00;;;6.10;99.90;;;;;;5059074;28;20111;-85
2021/12/20 01:47:21;;;;;;;0.00;0.00;;;6.00;99.90;;;;;;5074829;28;20048;-85
2021/12/20 01:50:05;;;;;;;0.00;0.00;;;5.80;99.90;;;;;;5075928;28;20112;-85
2021/12/20 01:52:40;;;;;;;0.00;0.00;;;5.90;99.90;;;;;;5058873;28;20059;-85
2021/12/20 01:55:15;;;;;;;0.00;0.00;;;5.60;99.90;;;;;;5059528;28;20049;-85
2021/12/20 01:57:42;;;;;;;0.08;0.00;;;5.60;99.90;;;;;;5059305;28;20053;-85
2021/12/20 02:00:24;;;;;;;0.00;0.00;;;5.50;99.90;;;;;;5074254;28;20131;-85
2021/12/20 02:03:00;;;;;;;0.00;0.00;;;5.50;99.90;;;;;;5057794;28;20055;-85
2021/12/20 02:05:49;;;;;;;0.00;0.00;;;5.50;99.90;;;;;;5057460;28;20040;-85
2021/12/20 02:08:21;;;;;;;0.20;0.20;;;5.40;99.90;;;;;;5057815;28;20036;-85
2021/12/20 02:10:49;;;;;;;0.65;0.65;;;5.40;99.90;;;;;;5058613;28;20052;-85
2021/12/20 02:13:16;;;;;;;0.00;0.00;;;5.40;99.90;;;;;;5058353;28;20060;-85
2021/12/20 02:15:42;;;;;;;0.00;0.00;;;5.40;99.90;;;;;;5058080;28;20143;-85
2021/12/20 02:18:08;;;;;;;0.00;0.00;;;5.50;99.90;;;;;;5056877;28;20052;-85
2021/12/20 02:20:35;;;;;;;0.00;0.00;;;5.30;99.90;;;;;;5074172;28;20041;-85
2021/12/20 02:23:02;;;;;;;0.08;0.00;;;5.40;99.90;;;;;;5058341;28;20466;-84
2021/12/20 02:25:29;;;;;;;0.00;0.00;;;5.20;99.90;;;;;;5075081;28;20043;-85
2021/12/20 02:27:58;;;;;;;3.95;0.00;;;5.20;99.90;;;;;;5074861;28;20379;-85
2021/12/20 02:38:33;;;;;;;0.00;0.00;;;5.10;99.90;;;;;;5074890;28;20105;-85
2021/12/20 02:41:11;;;;;;;0.00;0.00;;;5.40;99.90;;;;;;5058139;28;20419;-86
2021/12/20 02:43:41;;;;;;;0.00;0.00;;;5.10;99.90;;;;;;5058118;28;20055;-84
2021/12/20 02:49:06;;;;;;;0.00;0.00;;;5.00;99.90;;;;;;5073733;28;20082;-85
2021/12/20 02:51:32;;;;;;;0.55;0.00;;;5.00;99.90;;;;;;5056602;28;20052;-84
2021/12/20 02:54:01;;;;;;;0.00;0.00;;;5.10;99.90;;;;;;5056805;28;20040;-85
2021/12/20 02:56:27;;;;;;;0.00;0.00;;;4.90;99.90;;;;;;5057152;28;20088;-85
2021/12/20 02:58:53;;;;;;;0.00;0.00;;;5.20;99.90;;;;;;5057465;28;20068;-84
2021/12/20 03:01:20;;;;;;;0.00;0.00;;;4.90;99.90;;;;;;5057477;28;20488;-85
2021/12/20 03:03:47;;;;;;;0.00;0.00;;;6.30;99.90;;;;;;5055814;28;20095;-85
2021/12/20 03:06:20;;;;;;;0.00;0.00;;;4.90;99.90;;;;;;5073259;28;20442;-85
2021/12/20 03:08:50;;;;;;;0.00;0.00;;;5.00;99.90;;;;;;5072767;28;20136;-85
2021/12/20 03:11:17;;;;;;;0.00;0.00;;;4.90;99.90;;;;;;5056215;28;20541;-85
2021/12/20 03:13:46;;;;;;;0.00;0.00;;;4.70;99.90;;;;;;5056102;28;20089;-85
2021/12/20 03:16:12;;;;;;;0.00;0.00;;;4.80;99.90;;;;;;5056947;28;20040;-85
2021/12/20 03:18:38;;;;;;;0.00;0.00;;;4.90;99.90;;;;;;5057095;28;20044;-85
2021/12/20 03:21:04;;;;;;;0.08;0.00;;;4.70;99.90;;;;;;5056570;28;20056;-85
2021/12/20 03:23:29;;;;;;;0.00;0.00;;;4.70;99.90;;;;;;5057108;28;20060;-85
2021/12/20 03:25:55;;;;;;;0.90;0.22;;;4.70;99.90;;;;;;5057066;28;20125;-85
2021/12/20 03:28:22;;;;;;;0.00;0.00;;;5.00;99.90;;;;;;5073868;28;20048;-84
2021/12/20 03:30:47;;;;;;;0.00;0.00;;;4.50;99.90;;;;;;5073698;28;20052;-85
2021/12/20 03:33:13;;;;;;;0.00;0.00;;;4.70;99.90;;;;;;5072580;28;20070;-85
2021/12/20 03:35:39;;;;;;;0.00;0.00;;;5.90;99.90;;;;;;5073753;28;20140;-85
2021/12/20 03:38:05;;;;;;;0.20;0.20;;;4.50;99.90;;;;;;5073760;28;20052;-85
2021/12/20 03:40:32;;;;;;;0.00;0.00;;;4.40;99.90;;;;;;5073784;28;20404;-85
2021/12/20 03:42:58;;;;;;;0.00;0.00;;;4.40;99.90;;;;;;5072431;28;20086;-85
2021/12/20 03:45:24;;;;;;;0.00;0.00;;;4.40;99.90;;;;;;5057152;28;20512;-85
2021/12/20 03:47:50;;;;;;;0.00;0.00;;;4.40;99.90;;;;;;5056661;28;20088;-84
2021/12/20 03:50:17;;;;;;;0.00;0.00;;;4.40;99.90;;;;;;5073211;28;20118;-85
2021/12/20 03:52:43;;;;;;;0.10;0.10;;;4.40;99.90;;;;;;5056705;28;20049;-85
2021/12/20 03:55:11;;;;;;;0.00;0.00;;;4.40;99.90;;;;;;5056767;28;20044;-84
2021/12/20 03:57:37;;;;;;;0.00;0.00;;;4.30;99.90;;;;;;5057051;28;20045;-84
2021/12/20 04:00:07;;;;;;;0.32;0.20;;;4.30;99.90;;;;;;5073513;28;20049;-84
2021/12/20 04:02:40;;;;;;;0.00;0.00;;;4.20;99.90;;;;;;5056152;28;20041;-84
2021/12/20 04:05:07;;;;;;;0.03;0.03;;;4.10;99.90;;;;;;5056670;28;20060;-84
2021/12/20 04:07:33;;;;;;;2.05;0.55;;;4.10;99.90;;;;;;5056114;28;20044;-85
2021/12/20 04:09:59;;;;;;;0.00;0.00;;;4.00;99.90;;;;;;5073715;28;20055;-84
2021/12/20 04:12:24;;;;;;;0.00;0.00;;;4.00;99.90;;;;;;5056555;28;20051;-84
2021/12/20 04:14:50;;;;;;;1.10;0.38;;;4.00;99.90;;;;;;5073470;28;20044;-84
2021/12/20 04:17:16;;;;;;;0.00;0.00;;;3.90;99.90;;;;;;5073580;28;20090;-85
2021/12/20 04:19:42;;;;;;;0.00;0.00;;;3.80;99.90;;;;;;5056884;28;20094;-85
2021/12/20 04:22:08;;;;;;;0.00;0.00;;;3.70;99.90;;;;;;5056941;28;20055;-84
2021/12/20 04:24:34;;;;;;;0.00;0.00;;;3.70;99.90;;;;;;5073589;28;20534;-84
2021/12/20 04:27:00;;;;;;;0.00;0.00;;;3.70;99.90;;;;;;5073285;28;20048;-85
2021/12/20 04:29:28;;;;;;;0.00;0.00;;;3.70;99.90;;;;;;5055795;28;20045;-84
2021/12/20 04:31:54;;;;;;;0.00;0.00;;;3.70;99.90;;;;;;5071788;28;20127;-84
2021/12/20 04:34:19;;;;;;;0.00;0.00;;;3.60;99.90;;;;;;5055163;28;20135;-84
2021/12/20 04:36:45;;;;;;;0.00;0.00;;;3.60;99.90;;;;;;5055822;28;20436;-84
2021/12/20 04:39:16;;;;;;;3.10;2.38;;;3.60;99.90;;;;;;5056116;28;20162;-84
2021/12/20 04:41:42;;;;;;;0.00;0.00;;;3.50;99.90;;;;;;5058947;28;20091;-84
2021/12/20 04:44:08;;;;;;;0.00;0.00;;;3.50;99.90;;;;;;5058958;28;20043;-84
2021/12/20 04:46:33;;;;;;;0.00;0.00;;;3.50;99.90;;;;;;5059943;28;20040;-84
2021/12/20 04:48:59;;;;;;;0.38;0.38;;;3.30;99.90;;;;;;5076380;28;20476;-84
2021/12/20 04:51:25;;;;;;;1.35;0.32;;;3.30;99.90;;;;;;5060767;28;20048;-84
2021/12/20 04:53:51;;;;;;;0.00;0.00;;;3.20;99.90;;;;;;5076837;28;20037;-84
2021/12/20 04:56:16;;;;;;;0.00;0.00;;;3.20;99.90;;;;;;5076753;28;20059;-84
2021/12/20 04:58:42;;;;;;;0.65;0.65;;;3.10;99.90;;;;;;5059760;28;20047;-84
2021/12/20 05:01:08;;;;;;;0.00;0.00;;;3.10;99.90;;;;;;5059494;28;20452;-85
2021/12/20 05:03:33;;;;;;;0.00;0.00;;;3.00;99.90;;;;;;5060412;28;20052;-84
2021/12/20 05:05:59;;;;;;;0.00;0.00;;;2.90;99.90;;;;;;5059887;28;20467;-84
2021/12/20 05:08:33;;;;;;;0.00;0.00;;;2.90;99.90;;;;;;5076184;28;20098;-84
2021/12/20 05:11:00;;;;;;;0.00;0.00;;;2.90;99.90;;;;;;5059384;28;20135;-84
2021/12/20 05:13:25;;;;;;;0.00;0.00;;;2.60;99.90;;;;;;5076817;28;20140;-84
2021/12/20 05:15:51;;;;;;;0.00;0.00;;;2.80;99.90;;;;;;5076545;28;20084;-84
2021/12/20 05:18:17;;;;;;;0.00;0.00;;;3.60;99.90;;;;;;5076985;28;20055;-84
2021/12/20 05:20:43;;;;;;;0.00;0.00;;;3.30;99.90;;;;;;5059943;28;20094;-84
2021/12/20 05:23:09;;;;;;;0.00;0.00;;;2.70;99.90;;;;;;5060435;28;20353;-84
2021/12/20 05:25:36;;;;;;;0.00;0.00;;;2.70;99.90;;;;;;5076370;28;20041;-83
2021/12/20 05:28:02;;;;;;;0.00;0.00;;;2.70;99.90;;;;;;5060103;28;20137;-83
2021/12/20 05:30:28;;;;;;;0.05;0.00;;;2.70;99.90;;;;;;5057855;28;20106;-83
2021/12/20 05:32:54;;;;;;;0.75;0.20;;;3.10;99.90;;;;;;5058535;28;20544;-84
2021/12/20 05:35:23;;;;;;;0.00;0.00;;;2.70;99.90;;;;;;5058203;28;20055;-83
2021/12/20 05:37:50;;;;;;;0.00;0.00;;;2.60;99.90;;;;;;5057815;28;20080;-83
2021/12/20 05:40:16;;;;;;;0.00;0.00;;;2.60;99.90;;;;;;5074482;28;20127;-84
2021/12/20 05:42:45;;;;;;;0.00;0.00;;;2.60;99.90;;;;;;5057651;28;20524;-84
2021/12/20 05:45:11;;;;;;;0.00;0.00;;;2.60;99.90;;;;;;5058162;28;20049;-84
2021/12/20 05:47:37;;;;;;;0.00;0.00;;;2.50;99.90;;;;;;5057851;28;20041;-84
2021/12/20 05:50:05;;;;;;;0.00;0.00;;;2.50;99.90;;;;;;5057320;28;20056;-84
2021/12/20 05:52:30;;;;;;;0.00;0.00;;;2.50;99.90;;;;;;5074311;28;20075;-84
2021/12/20 05:54:56;;;;;;;0.00;0.00;;;2.40;99.90;;;;;;5058081;28;20056;-84
2021/12/20 05:57:22;;;;;;;0.00;0.00;;;2.50;99.90;;;;;;5075464;28;20048;-84
2021/12/20 05:59:48;;;;;;;0.00;0.00;;;2.40;99.90;;;;;;5074412;28;20090;-84
2021/12/20 06:02:13;;;;;;;0.00;0.00;;;2.40;99.90;;;;;;5057681;28;20041;-84
2021/12/20 06:04:39;;;;;;;0.00;0.00;;;2.40;99.90;;;;;;5058936;28;20090;-84
2021/12/20 06:07:05;;;;;;;0.00;0.00;;;2.50;99.90;;;;;;5075419;28;20076;-84
2021/12/20 06:09:31;;;;;;;0.00;0.00;;;2.30;99.90;;;;;;5075864;28;20131;-84
2021/12/20 06:11:59;;;;;;;0.00;0.00;;;2.30;99.90;;;;;;5058780;28;20084;-84
2021/12/20 06:14:29;;;;;;;0.30;0.30;;;2.20;99.90;;;;;;5073862;28;20044;-84
2021/12/20 06:16:57;;;;;;;0.00;0.00;;;2.40;99.90;;;;;;5058959;28;20135;-84
2021/12/20 06:19:24;;;;;;;0.00;0.00;;;2.20;99.90;;;;;;5057044;28;20055;-84
2021/12/20 06:21:51;;;;;;;0.47;0.32;;;2.20;99.90;;;;;;5056886;28;20048;-84
2021/12/20 06:24:17;;;;;;;0.05;0.05;;;2.50;99.90;;;;;;5056849;28;20059;-85
2021/12/20 06:26:42;;;;;;;1.65;0.80;;;2.30;99.90;;;;;;5056490;28;20040;-85
2021/12/20 06:29:08;;;;;;;0.00;0.00;;;2.30;99.90;;;;;;5073149;28;20051;-84
2021/12/20 06:31:34;;;;;;;0.35;0.35;;;2.30;99.90;;;;;;5073385;28;20052;-84
2021/12/20 06:33:59;;;;;;;0.00;0.00;;;2.30;99.90;;;;;;5056850;28;20139;-84
2021/12/20 06:36:28;;;;;;;0.00;0.00;;;2.20;99.90;;;;;;5056819;28;20044;-84
2021/12/20 06:38:56;;;;;;;0.00;0.00;;;2.20;99.90;;;;;;5056512;28;20080;-84
2021/12/20 06:41:22;;;;;;;3.95;0.35;;;2.10;99.90;;;;;;5056851;28;20049;-85
2021/12/20 06:43:48;;;;;;;0.00;0.00;;;2.00;99.90;;;;;;5057891;28;20056;-84
2021/12/20 06:46:15;;;;;;;0.22;0.20;;;2.20;99.90;;;;;;5073019;28;20087;-84
2021/12/20 06:48:43;;;;;;;0.00;0.00;;;2.00;99.90;;;;;;5072667;28;20048;-84
2021/12/20 06:51:09;;;;;;;0.00;0.00;;;2.00;99.90;;;;;;5074717;28;20082;-85
2021/12/20 06:53:34;;;;;;;0.00;0.00;;;2.60;99.90;;;;;;5056509;28;20044;-84
2021/12/20 06:56:00;;;;;;;0.28;0.20;;;1.80;99.90;;;;;;5056076;28;20080;-84
2021/12/20 06:58:26;;;;;;;0.00;0.00;;;1.80;99.90;;;;;;5056352;28;20056;-85
2021/12/20 07:00:53;;;;;;;0.00;0.00;;;1.80;99.90;;;;;;5056375;28;20053;-84
2021/12/20 07:03:20;;;;;;;0.00;0.00;;;1.70;99.90;;;;;;5055386;28;20040;-85
2021/12/20 07:05:46;;;;;;;0.00;0.00;;;2.10;99.90;;;;;;5056116;28;20052;-84
2021/12/20 07:08:12;;;;;;;0.00;0.00;;;1.70;99.90;;;;;;5055656;28;20400;-85
2021/12/20 07:10:38;;;;;;;0.00;0.00;;;1.70;99.90;;;;;;5056306;28;20049;-85
2021/12/20 07:13:04;;;;;;;0.00;0.00;;;1.60;99.90;;;;;;5072509;28;20044;-85
2021/12/20 07:15:31;;;;;;;0.00;0.00;;;2.50;99.90;;;;;;5056199;28;20052;-85
2021/12/20 07:17:58;;;;;;;0.15;0.15;;;1.60;99.90;;;;;;5072757;28;20045;-85
2021/12/20 07:20:25;;;;;;;2.13;0.80;;;1.40;99.90;;;;;;5055949;28;20048;-85
2021/12/20 07:22:51;;;;;;;0.55;0.43;;;1.50;99.90;;;;;;5057359;28;20055;-84
2021/12/20 07:25:18;;;;;;;0.00;0.00;;;1.50;99.90;;;;;;5056192;28;20044;-84
2021/12/20 07:27:47;;;;;;;0.00;0.00;;;1.50;99.90;;;;;;5057382;28;20222;-86
2021/12/20 07:30:13;;;;;;;0.00;0.00;;;1.80;99.90;;;;;;5058382;28;20044;-85
2021/12/20 07:32:39;;;;;;;0.00;0.00;;;1.80;99.90;;;;;;5055897;28;20507;-86
2021/12/20 07:35:05;;;;;;;0.00;0.00;;;1.50;99.90;;;;;;5056892;28;20171;-85
2021/12/20 07:37:31;;;;;;;0.00;0.00;;;1.50;99.90;;;;;;5057451;28;20079;-85
2021/12/20 07:39:57;;;;;;;0.10;0.10;;;1.50;99.90;;;;;;5056804;28;20091;-86
2021/12/20 07:42:23;;;;;;;0.00;0.00;;;1.40;99.90;;;;;;5057521;28;20159;-86
2021/12/20 07:44:48;;;;;;;0.00;0.00;;;1.40;99.90;;;;;;5074240;28;20044;-85
2021/12/20 07:47:14;;;;;;;0.00;0.00;;;1.50;99.90;;;;;;5057144;28;20047;-86
2021/12/20 07:49:40;;;;;;;0.00;0.00;;;1.50;99.90;;;;;;5056976;28;20140;-86
2021/12/20 07:52:06;;;;;;;0.00;0.00;;;1.40;99.90;;;;;;5057318;28;20059;-86
2021/12/20 07:54:32;;;;;;;0.00;0.00;;;1.40;99.90;;;;;;5057060;28;20048;-86
2021/12/20 07:56:58;;;;;;;0.00;0.00;;;1.30;99.90;;;;;;5057275;28;20480;-86
2021/12/20 07:59:24;;;;;;;0.00;0.00;;;1.40;99.90;;;;;;5056615;28;20040;-86
2021/12/20 08:01:50;;;;;;;0.20;0.20;;;1.30;99.90;;;;;;5056881;28;20064;-86
2021/12/20 08:04:16;;;;;;;0.00;0.00;;;1.30;99.90;;;;;;5057242;28;20430;-86
2021/12/20 08:06:45;;;;;;;0.00;0.00;;;1.30;99.90;;;;;;5073333;28;20044;-86
2021/12/20 08:09:11;;;;;;;0.00;0.00;;;1.30;99.90;;;;;;5074490;28;20096;-86
2021/12/20 08:11:37;;;;;;;0.10;0.10;;;1.30;99.90;;;;;;5056499;28;20048;-86
2021/12/20 08:14:04;;;;;;;0.00;0.00;;;1.30;99.90;;;;;;5074609;28;20044;-86
2021/12/20 08:16:30;;;;;;;0.00;0.00;;;1.30;99.90;;;;;;5078014;28;20052;-86
2021/12/20 08:18:56;;;;;;;0.00;0.00;;;1.40;99.90;;;;;;5077566;28;20393;-84
2021/12/20 08:21:24;;;;;;;0.00;0.00;;;1.40;99.90;;;;;;5060285;28;20044;-88
2021/12/20 08:23:50;;;;;;;0.00;0.00;;;1.40;99.90;;;;;;5060791;28;20044;-88
2021/12/20 08:26:16;;;;;;;0.00;0.00;;;1.60;99.90;;;;;;5060885;28;20052;-89
2021/12/20 08:28:42;;;;;;;0.00;0.00;;;1.30;99.90;;;;;;5060720;28;20174;-87
2021/12/20 08:31:16;;;;;;;0.00;0.00;;;1.30;99.90;;;;;;5059904;28;20532;-88
2021/12/20 08:33:45;;;;;;;0.00;0.00;;;1.30;99.90;;;;;;5059553;28;20055;-87
2021/12/20 08:36:14;;;;;;;0.00;0.00;;;1.30;99.90;;;;;;5058906;28;20041;-87
2021/12/20 08:38:45;;;;;;;0.00;0.00;;;1.30;99.90;;;;;;5059346;28;20048;-87
2021/12/20 08:41:11;;;;;;;0.00;0.00;;;1.40;99.90;;;;;;5059675;28;20064;-86
2021/12/20 08:43:38;;;;;;;0.00;0.00;;;1.40;99.90;;;;;;5060566;28;20087;-88
2021/12/20 08:46:04;;;;;;;0.30;0.30;;;1.50;99.90;;;;;;5060463;28;20036;-86
2021/12/20 08:48:31;;;;;;;0.00;0.00;;;1.50;99.90;;;;;;5059898;28;20125;-88
2021/12/20 08:51:01;;;;;;;0.00;0.00;;;1.90;99.90;;;;;;5060032;28;20068;-87
2021/12/20 08:53:26;;;;;;;3.63;0.00;;;2.50;99.90;;;;;;5060708;28;20182;-87
2021/12/20 08:55:53;;;;;;;0.95;0.38;;;3.40;99.90;;;;;;5060068;28;20131;-86
2021/12/20 08:58:18;;;;;;;0.45;0.05;;;4.30;99.90;;;;;;5077210;28;20137;-87
2021/12/20 09:00:44;;;;;;;2.00;0.57;;;5.40;99.90;;;;;;5060236;28;20040;-84
2021/12/20 09:03:13;;;;;;;0.22;0.10;;;6.30;99.90;;;;;;5061269;28;20059;-87
2021/12/20 09:05:39;;;;;;;0.05;0.05;;;6.70;99.90;;;;;;5060000;28;20044;-88
2021/12/20 09:08:07;;;;;;;0.80;0.47;;;6.70;99.90;;;;;;5060180;28;20054;-85
2021/12/20 09:10:33;;;;;;;1.52;1.05;;;6.80;99.90;;;;;;5059729;28;20041;-86
2021/12/20 09:13:00;;;;;;;0.10;0.10;;;6.30;99.90;;;;;;5060177;28;20048;-85
2021/12/20 09:15:26;;;;;;;0.00;0.00;;;6.20;99.90;;;;;;5076497;28;20045;-85
2021/12/20 09:17:53;;;;;;;0.70;0.68;;;6.10;99.90;;;;;;5059775;28;20037;-86
2021/12/20 09:20:21;;;;;;;0.30;0.22;;;6.00;99.90;;;;;;5076279;28;20040;-86
2021/12/20 09:22:56;;;;;;;0.00;0.00;;;5.90;99.90;;;;;;5060053;28;20048;-86
2021/12/20 09:25:25;;;;;;;0.10;0.10;;;6.30;99.90;;;;;;5059389;28;20086;-86
2021/12/20 09:27:52;;;;;;;0.00;0.00;;;6.70;99.90;;;;;;5059553;28;20079;-87
2021/12/20 09:30:19;;;;;;;0.00;0.00;;;7.20;99.90;;;;;;5059347;28;20522;-85
2021/12/20 09:32:45;;;;;;;0.60;0.60;;;8.10;99.90;;;;;;5059409;28;20133;-85
2021/12/20 09:35:11;;;;;;;0.00;0.00;;;9.50;99.90;;;;;;5057913;28;20041;-85
2021/12/20 09:37:38;;;;;;;0.00;0.00;;;9.30;99.90;;;;;;5074253;28;20102;-84
2021/12/20 09:40:13;;;;;;;0.00;0.00;;;10.00;99.90;;;;;;5057819;28;20050;-85
2021/12/20 09:42:48;;;;;;;0.00;0.00;;;10.20;99.90;;;;;;5057794;28;20060;-85
2021/12/20 09:45:18;;;;;;;0.00;0.00;;;11.40;99.90;;;;;;5057330;28;20083;-85
2021/12/20 09:47:45;;;;;;;0.00;0.00;;;11.00;98.70;;;;;;5057373;28;20044;-85
2021/12/20 09:50:12;;;;;;;0.10;0.10;;;11.20;94.10;;;;;;5057187;28;20052;-85
2021/12/20 09:52:39;;;;;;;0.20;0.20;;;11.50;94.50;;;;;;5057704;28;20063;-85
2021/12/20 09:55:06;;;;;;;1.55;0.75;;;11.50;93.50;;;;;;5057558;28;20048;-85
2021/12/20 09:57:32;;;;;;;0.10;0.10;;;11.40;92.00;;;;;;5074323;28;20044;-85
2021/12/20 10:00:02;;;;;;;0.00;0.00;;;11.50;92.20;;;;;;5058188;28;20088;-84
2021/12/20 10:02:28;;;;;;;0.43;0.43;;;11.10;95.10;;;;;;5058160;28;20547;-84
2021/12/20 10:04:56;;;;;;;0.00;0.00;;;11.30;99.90;;;;;;5075241;28;20131;-84
2021/12/20 10:07:25;;;;;;;0.00;0.00;;;11.20;95.60;;;;;;5058451;28;20102;-85
2021/12/20 10:09:51;;;;;;;3.15;0.20;;;10.90;97.70;;;;;;5058185;28;20551;-85
2021/12/20 10:12:23;;;;;;;0.80;0.20;;;10.90;97.20;;;;;;5074496;28;20059;-84
2021/12/20 10:15:08;;;;;;;3.17;0.10;;;10.80;99.20;;;;;;5058219;28;20048;-84
2021/12/20 10:17:49;;;;;;;0.00;0.00;;;10.60;99.40;;;;;;5074834;28;20055;-84
2021/12/20 10:20:36;;;;;;;0.52;0.17;;;10.30;99.90;;;;;;5058105;28;20051;-84
2021/12/20 10:23:38;;;;;;;0.00;0.00;;;10.10;99.90;;;;;;5058140;28;20084;-84
2021/12/20 10:26:10;;;;;;;0.22;0.22;;;10.40;99.90;;;;;;5020143;28;20588;-85
2021/12/20 10:28:37;;;;;;;0.43;0.30;;;10.40;99.90;;;;;;5037388;28;20061;-84
2021/12/20 10:31:08;;;;;;;0.00;0.00;;;10.70;99.00;;;;;;5036774;28;20540;-84
2021/12/20 10:33:34;;;;;;;2.13;0.80;;;11.00;97.30;;;;;;5020900;28;20056;-84
2021/12/20 10:36:10;;;;;;;1.35;0.55;;;11.60;94.40;;;;;;5036940;28;20053;-83
2021/12/20 10:38:40;;;;;;;0.00;0.00;;;12.20;94.50;;;;;;5036583;28;20485;-83
2021/12/20 10:41:15;;;;;;;0.00;0.00;;;12.60;91.70;;;;;;5036618;28;20139;-84
2021/12/20 10:43:48;;;;;;;0.35;0.35;;;12.70;84.50;;;;;;5020216;28;20063;-84
2021/12/20 10:46:19;;;;;;;1.38;0.55;;;12.90;85.20;;;;;;5036630;28;20042;-85
2021/12/20 10:48:50;;;;;;;0.20;0.20;;;12.40;84.70;;;;;;5019083;28;20092;-85
2021/12/20 10:51:23;;;;;;;0.00;0.00;;;12.30;80.50;;;;;;5018801;28;20096;-84
2021/12/20 10:53:57;;;;;;;0.15;0.00;;;12.70;82.00;;;;;;5019100;28;20053;-85
2021/12/20 10:56:23;;;;;;;6.88;0.45;;;13.10;81.40;;;;;;5019112;28;20064;-85
2021/12/20 10:58:49;;;;;;;0.00;0.00;;;13.70;79.00;;;;;;5035562;28;20075;-84
2021/12/20 11:01:45;;;;;;;0.00;0.00;;;13.90;74.20;;;;;;5019178;28;20124;-84
2021/12/20 11:04:12;;;;;;;0.55;0.55;;;14.30;74.00;;;;;;5070521;28;20051;-84
2021/12/20 11:09:17;;;;;;;0.00;0.00;;;15.10;69.30;;;;;;5074373;28;20048;-84
2021/12/20 11:11:48;;;;;;;0.00;0.00;;;14.90;69.70;;;;;;5073985;28;20048;-84
2021/12/20 11:14:14;;;;;;;0.00;0.00;;;14.80;66.70;;;;;;5057272;28;20135;-84
2021/12/20 11:16:43;;;;;;;1.02;0.75;;;14.90;67.60;;;;;;5057910;28;20468;-84
2021/12/20 11:19:27;;;;;;;0.38;0.38;;;15.00;65.50;;;;;;5074675;28;20036;-84
2021/12/20 11:22:00;;;;;;;0.00;0.00;;;15.30;64.70;;;;;;5057067;28;20046;-83
2021/12/20 11:24:49;;;;;;;0.00;0.00;;;15.20;58.60;;;;;;5055759;28;20054;-84
2021/12/20 11:27:32;;;;;;;0.00;0.00;;;15.20;63.60;;;;;;5072681;28;20040;-84
2021/12/20 11:30:02;;;;;;;0.00;0.00;;;15.30;60.60;;;;;;5056144;28;20141;-83
2021/12/20 11:32:28;;;;;;;0.22;0.03;;;15.40;62.60;;;;;;5072498;28;20373;-84
2021/12/20 11:34:54;;;;;;;0.00;0.00;;;15.30;59.30;;;;;;5055798;28;20053;-84
2021/12/20 11:37:23;;;;;;;0.00;0.00;;;15.40;58.90;;;;;;5056597;28;20067;-84
2021/12/20 11:39:50;;;;;;;0.00;0.00;;;15.40;57.60;;;;;;5072620;28;20127;-85
2021/12/20 11:42:17;;;;;;;0.10;0.10;;;15.60;58.80;;;;;;5055502;28;20484;-84
2021/12/20 11:44:47;;;;;;;0.00;0.00;;;15.50;56.80;;;;;;5056136;28;20115;-84
2021/12/20 11:47:29;;;;;;;0.00;0.00;;;15.60;55.80;;;;;;5055596;28;20048;-84
2021/12/20 11:50:05;;;;;;;0.00;0.00;;;15.50;55.20;;;;;;5062553;28;20135;-84
2021/12/20 11:52:38;;;;;;;0.10;0.10;;;15.60;56.00;;;;;;5062930;28;20396;-84
2021/12/20 11:55:25;;;;;;;1.45;0.80;;;15.60;54.90;;;;;;5079670;28;20040;-84
2021/12/20 11:57:56;;;;;;;0.00;0.00;;;15.50;56.70;;;;;;5063755;28;20051;-85
2021/12/20 12:00:24;;;;;;;0.52;0.43;;;15.40;57.90;;;;;;5063613;28;20132;-85
2021/12/20 12:03:13;;;;;;;1.98;1.27;;;15.20;57.10;;;;;;5063622;28;20084;-85
2021/12/20 12:05:59;;;;;;;0.00;0.00;;;14.80;55.60;;;;;;5080162;28;20090;-85
2021/12/20 12:08:34;;;;;;;0.00;0.00;;;14.20;59.90;;;;;;5080089;28;20044;-85
2021/12/20 12:11:09;;;;;;;0.00;0.00;;;13.80;58.20;;;;;;5061956;28;20452;-85
2021/12/20 12:13:46;;;;;;;0.00;0.00;;;13.40;55.70;;;;;;5063217;28;20048;-85
2021/12/20 12:16:29;;;;;;;0.00;0.00;;;13.20;58.70;;;;;;5062738;28;20365;-86
2021/12/20 12:18:58;;;;;;;0.00;0.00;;;13.20;56.90;;;;;;5062610;28;20404;-86
2021/12/20 12:21:33;;;;;;;0.00;0.00;;;13.70;60.20;;;;;;5063114;28;20404;-86
2021/12/20 12:24:03;;;;;;;;;;;13.70;59.50;;;;;;5062559;28;20139;-86
2021/12/20 12:26:34;;;;;;;0.10;0.00;;;13.60;57.10;;;;;;5061867;28;20279;-86
2021/12/20 12:29:01;;;;;;;0.00;0.00;;;13.50;56.80;;;;;;5062924;28;20040;-86
2021/12/20 12:31:47;;;;;;;0.00;0.00;;;13.30;59.10;;;;;;5061730;28;20083;-86
2021/12/20 12:34:13;;;;;;;0.80;0.30;;;13.20;60.80;;;;;;5061488;28;20492;-86
2021/12/20 12:36:40;;;;;;;0.00;0.00;;;13.10;60.40;;;;;;5062967;28;20043;-85
2021/12/20 12:39:25;;;;;;;0.00;0.00;;;13.00;60.00;;;;;;5079679;28;20048;-85
2021/12/20 12:42:01;;;;;;;0.00;0.00;;;12.60;54.90;;;;;;5062285;28;20048;-85
2021/12/20 12:44:31;;;;;;;0.00;0.00;;;12.40;58.60;;;;;;5063677;28;20052;-84
2021/12/20 12:47:08;;;;;;;0.00;0.00;;;12.40;58.80;;;;;;5063577;28;20037;-87
2021/12/20 12:49:41;;;;;;;0.03;0.00;;;12.10;60.30;;;;;;5059219;28;20052;-88
2021/12/20 12:52:28;;;;;;;0.00;0.00;;;12.00;60.30;;;;;;5045906;28;20071;-87
2021/12/20 12:54:57;;;;;;;0.00;0.00;;;11.70;61.70;;;;;;5043107;28;20489;-85
2021/12/20 12:57:23;;;;;;;0.00;0.00;;;11.60;62.80;;;;;;5043326;28;20044;-88
2021/12/20 12:59:56;;;;;;;0.32;0.28;;;11.40;62.40;;;;;;5041073;28;20044;-88
2021/12/20 13:02:38;;;;;;;0.00;0.00;;;11.40;63.40;;;;;;5040784;28;20041;-87
2021/12/20 13:05:06;;;;;;;0.10;0.03;;;11.20;63.70;;;;;;5056851;28;20103;-86
2021/12/20 13:07:36;;;;;;;0.65;0.65;;;11.10;64.60;;;;;;5039582;28;20041;-87
2021/12/20 13:10:12;;;;;;;0.00;0.00;;;11.00;65.00;;;;;;5038900;28;20059;-87
2021/12/20 13:15:25;;;;;;;0.00;0.00;;;10.80;65.40;;;;;;5055283;28;20459;-88
2021/12/20 13:17:54;;;;;;;0.00;0.00;;;10.60;63.90;;;;;;5038300;28;20045;-86
2021/12/20 13:20:49;;;;;;;0.40;0.20;;;10.30;64.40;;;;;;5038422;28;20110;-86
2021/12/20 13:23:18;;;;;;;0.00;0.00;;;10.10;65.40;;;;;;5039281;28;20053;-89